Time;durP1;ratioP1;P1;durP2;ratioP2;P2;SDS_P1;SDS_P2;PMS_P1;PMS_P2;Temp;Humidity;BMP_temperature;BMP_pressure;BME280_temperature;BME280_humidity;BME280_pressure;Samples;Min_cycle;Max_cycle;Signal;HPM_P1;HPM_P2
2022/01/28 00:00:36;;;;;;;12.60;2.43;;;5.00;99.90;;;;;;5036135;28;20245;-47
2022/01/28 00:03:07;;;;;;;13.73;2.53;;;5.00;99.90;;;;;;5037728;28;20624;-45
2022/01/28 00:05:37;;;;;;;9.90;2.53;;;5.00;99.90;;;;;;5037281;28;20207;-46
2022/01/28 00:08:05;;;;;;;12.03;2.47;;;5.00;99.90;;;;;;5037059;28;20216;-44
2022/01/28 00:10:32;;;;;;;5.07;1.83;;;4.90;99.90;;;;;;5019418;28;20188;-47
2022/01/28 00:39:43;;;;;;;10.00;3.03;;;4.80;99.90;;;;;;5036595;28;20187;-45
2022/01/28 00:42:09;;;;;;;11.53;2.47;;;4.70;99.90;;;;;;5036424;28;20700;-46
2022/01/28 00:44:35;;;;;;;11.20;1.93;;;4.70;99.90;;;;;;5036347;28;20692;-45
2022/01/28 00:47:01;;;;;;;12.50;2.60;;;4.60;99.90;;;;;;5036525;28;20232;-41
2022/01/28 00:49:26;;;;;;;8.93;2.30;;;4.60;99.90;;;;;;5036392;28;20177;-42
2022/01/28 00:51:52;;;;;;;9.70;2.93;;;4.60;99.90;;;;;;5036364;28;20180;-43
2022/01/28 00:54:18;;;;;;;16.07;2.50;;;4.60;99.90;;;;;;5036466;28;20180;-43
2022/01/28 00:56:44;;;;;;;9.93;2.07;;;4.60;99.90;;;;;;5036073;28;20279;-46
2022/01/28 00:59:10;;;;;;;14.93;2.47;;;4.60;99.90;;;;;;5036099;28;20177;-41
2022/01/28 01:01:37;;;;;;;8.50;2.03;;;4.60;99.90;;;;;;5036276;28;20215;-47
2022/01/28 01:04:03;;;;;;;19.27;3.03;;;4.50;99.90;;;;;;5018173;28;20186;-46
2022/01/28 01:06:30;;;;;;;11.63;2.80;;;4.50;99.90;;;;;;5018168;28;20239;-41
2022/01/28 01:08:56;;;;;;;7.10;2.50;;;4.50;99.90;;;;;;5035984;28;20169;-44
2022/01/28 01:11:23;;;;;;;19.53;3.47;;;4.50;99.90;;;;;;5017679;28;20211;-45
2022/01/28 01:13:50;;;;;;;13.60;3.10;;;4.40;99.90;;;;;;5036041;28;20191;-42
2022/01/28 01:16:21;;;;;;;14.87;3.33;;;4.40;99.90;;;;;;5035979;28;20296;-40
2022/01/28 01:18:53;;;;;;;17.53;4.00;;;4.40;99.90;;;;;;5018083;28;20235;-46
2022/01/28 01:21:23;;;;;;;17.50;3.20;;;4.40;99.90;;;;;;5035604;28;20215;-44
2022/01/28 01:23:55;;;;;;;10.23;2.80;;;4.40;99.90;;;;;;5035951;28;20187;-46
2022/01/28 01:26:30;;;;;;;17.50;2.80;;;4.30;99.90;;;;;;5035881;28;20201;-41
2022/01/28 01:28:56;;;;;;;16.70;2.70;;;4.30;99.90;;;;;;5035637;28;20157;-40
2022/01/28 01:31:21;;;;;;;13.23;2.93;;;4.30;99.90;;;;;;5035531;28;20185;-44
2022/01/28 01:33:54;;;;;;;13.17;2.40;;;4.30;99.90;;;;;;5018599;28;20172;-42
2022/01/28 01:36:20;;;;;;;12.10;2.03;;;4.20;99.90;;;;;;5017626;28;20196;-43
2022/01/28 01:38:46;;;;;;;10.70;2.10;;;4.20;99.90;;;;;;5035392;28;20217;-41
2022/01/28 01:41:17;;;;;;;10.33;2.47;;;4.20;99.90;;;;;;5035639;28;20177;-44
2022/01/28 01:44:13;;;;;;;15.70;2.70;;;4.10;99.90;;;;;;5035412;28;20161;-44
2022/01/28 01:52:07;;;;;;;13.83;3.30;;;4.00;99.90;;;;;;5035192;28;20248;-42
2022/01/28 01:54:44;;;;;;;14.47;2.80;;;4.00;99.90;;;;;;5035169;28;20181;-45
2022/01/28 01:57:12;;;;;;;11.60;2.83;;;3.90;99.90;;;;;;5017473;28;20216;-42
2022/01/28 01:59:40;;;;;;;8.67;2.00;;;3.90;99.90;;;;;;5035229;28;20188;-41
2022/01/28 02:02:06;;;;;;;15.57;2.37;;;3.90;99.90;;;;;;5035181;28;20184;-43
2022/01/28 02:04:32;;;;;;;8.90;2.63;;;3.80;99.90;;;;;;5035147;28;20201;-43
2022/01/28 02:07:00;;;;;;;19.07;2.80;;;3.70;99.90;;;;;;5034797;28;20211;-42
2022/01/28 02:09:26;;;;;;;14.30;2.50;;;3.70;99.90;;;;;;5035387;28;20692;-43
2022/01/28 02:11:53;;;;;;;10.77;2.23;;;3.60;99.90;;;;;;5017067;28;20181;-42
2022/01/28 02:14:18;;;;;;;14.73;2.33;;;3.50;99.90;;;;;;5034990;28;20177;-42
2022/01/28 02:16:44;;;;;;;11.17;2.30;;;3.50;99.90;;;;;;5034601;28;20735;-43
2022/01/28 02:19:10;;;;;;;9.37;2.23;;;3.40;99.90;;;;;;5034663;28;20603;-42
2022/01/28 02:21:55;;;;;;;12.60;2.23;;;3.40;99.90;;;;;;5034454;28;20202;-42
2022/01/28 02:24:30;;;;;;;9.77;2.40;;;3.40;99.90;;;;;;5015952;28;20561;-41
2022/01/28 02:26:55;;;;;;;13.17;2.47;;;3.40;99.90;;;;;;5034648;28;20200;-42
2022/01/28 02:29:30;;;;;;;12.97;3.07;;;3.40;99.90;;;;;;5034449;28;20172;-44
2022/01/28 02:31:58;;;;;;;8.07;2.27;;;3.50;99.90;;;;;;5016721;28;20165;-42
2022/01/28 02:34:24;;;;;;;16.63;1.97;;;3.50;99.90;;;;;;5016569;28;20188;-43
2022/01/28 02:36:49;;;;;;;18.03;3.07;;;3.50;99.90;;;;;;5000166;28;20200;-42
2022/01/28 02:39:15;;;;;;;9.10;2.47;;;3.50;99.90;;;;;;5034542;28;20168;-42
2022/01/28 02:41:45;;;;;;;7.13;2.73;;;3.60;99.90;;;;;;5034419;28;20518;-42
2022/01/28 02:44:23;;;;;;;11.40;2.40;;;3.60;99.90;;;;;;5034157;28;20645;-44
2022/01/28 02:47:01;;;;;;;11.33;2.50;;;3.60;99.90;;;;;;5016325;28;20330;-42
2022/01/28 02:49:33;;;;;;;12.93;2.40;;;3.60;99.90;;;;;;5034837;28;20189;-43
2022/01/28 02:51:59;;;;;;;8.07;1.80;;;3.60;99.90;;;;;;5034663;28;20149;-43
2022/01/28 02:54:25;;;;;;;11.63;2.63;;;3.70;99.90;;;;;;5034398;28;20643;-44
2022/01/28 02:56:55;;;;;;;18.67;2.17;;;3.60;99.90;;;;;;5016398;28;20200;-42
2022/01/28 02:59:21;;;;;;;13.23;2.40;;;3.60;99.90;;;;;;5034166;28;20173;-43
2022/01/28 03:01:48;;;;;;;11.53;2.23;;;3.60;99.90;;;;;;5033871;28;20648;-44
2022/01/28 03:04:35;;;;;;;8.17;2.30;;;3.70;99.90;;;;;;5033858;28;20180;-44
2022/01/28 03:06:59;;;;;;;14.87;2.77;;;3.60;99.90;;;;;;5033532;28;20236;-42
2022/01/28 03:09:35;;;;;;;16.07;3.43;;;3.50;99.90;;;;;;5034224;28;20219;-42
2022/01/28 03:12:13;;;;;;;13.83;2.47;;;3.50;99.90;;;;;;5033973;28;20172;-41
2022/01/28 03:15:00;;;;;;;14.27;2.33;;;3.50;99.90;;;;;;5033656;28;20215;-44
2022/01/28 03:22:44;;;;;;;12.70;1.90;;;3.40;99.90;;;;;;5033788;28;20177;-41
2022/01/28 03:25:10;;;;;;;10.33;2.27;;;3.40;99.90;;;;;;5033399;28;20208;-42
2022/01/28 03:27:50;;;;;;;7.60;1.90;;;3.40;99.90;;;;;;5033643;28;20196;-40
2022/01/28 03:30:16;;;;;;;15.30;2.17;;;3.40;99.90;;;;;;5033421;28;20651;-41
2022/01/28 03:32:41;;;;;;;16.10;2.60;;;3.40;99.90;;;;;;5033396;28;20176;-42
2022/01/28 03:35:09;;;;;;;14.70;2.87;;;3.40;99.90;;;;;;5033334;28;20595;-42
2022/01/28 03:37:35;;;;;;;13.87;2.30;;;3.40;99.90;;;;;;5033247;28;20203;-43
2022/01/28 03:40:02;;;;;;;11.10;2.23;;;3.40;99.90;;;;;;5033358;28;20255;-42
2022/01/28 03:42:27;;;;;;;13.50;3.23;;;3.40;99.90;;;;;;5033273;28;20200;-41
2022/01/28 03:44:53;;;;;;;12.37;2.97;;;3.40;99.90;;;;;;5033180;28;20321;-43
2022/01/28 03:47:18;;;;;;;16.97;2.70;;;3.40;99.90;;;;;;5033225;28;20224;-43
2022/01/28 03:49:44;;;;;;;14.20;2.47;;;3.40;99.90;;;;;;5033415;28;20593;-42
2022/01/28 03:52:09;;;;;;;11.83;2.27;;;3.40;99.90;;;;;;5033368;28;20581;-42
2022/01/28 03:54:35;;;;;;;8.77;2.30;;;3.40;99.90;;;;;;5033182;28;20211;-41
2022/01/28 03:57:04;;;;;;;17.33;2.40;;;3.40;99.90;;;;;;5033074;28;20208;-41
2022/01/28 03:59:30;;;;;;;14.23;2.20;;;3.40;99.90;;;;;;5033699;28;20208;-43
2022/01/28 04:01:55;;;;;;;9.57;2.90;;;3.40;99.90;;;;;;5015381;28;20679;-42
2022/01/28 04:12:16;;;;;;;12.20;2.70;;;3.30;99.90;;;;;;5033597;28;20556;-43
2022/01/28 04:14:48;;;;;;;10.50;2.43;;;3.20;99.90;;;;;;5033331;28;20567;-42
2022/01/28 04:17:21;;;;;;;9.80;2.37;;;3.30;99.90;;;;;;5032998;28;20205;-42
2022/01/28 04:19:48;;;;;;;12.50;2.33;;;3.30;99.90;;;;;;5033260;28;20169;-40
2022/01/28 04:22:14;;;;;;;13.77;2.63;;;3.30;99.90;;;;;;5032880;28;20205;-41
2022/01/28 04:24:40;;;;;;;13.30;2.77;;;3.30;99.90;;;;;;5015232;28;20212;-43
2022/01/28 04:27:06;;;;;;;13.07;2.43;;;3.20;99.90;;;;;;5016020;28;20551;-43
2022/01/28 04:29:31;;;;;;;13.70;2.53;;;3.20;99.90;;;;;;5033212;28;20177;-42
2022/01/28 04:31:57;;;;;;;8.17;1.87;;;3.20;99.90;;;;;;5032950;28;20207;-45
2022/01/28 04:34:23;;;;;;;8.73;2.00;;;3.20;99.90;;;;;;5032945;28;20199;-43
2022/01/28 04:40:16;;;;;;;10.53;1.90;;;3.20;99.90;;;;;;5032809;28;20176;-43
2022/01/28 04:42:58;;;;;;;8.43;1.73;;;3.20;99.90;;;;;;5019572;28;20275;-43
2022/01/28 04:45:11;;;;;;;19.87;2.70;;;3.10;99.90;;;;;;5030912;28;20220;-43
2022/01/28 04:55:38;;;;;;;6.63;1.77;;;2.80;99.90;;;;;;5036673;28;20198;-42
2022/01/28 05:00:44;;;;;;;12.40;2.90;;;2.80;99.90;;;;;;5036466;28;20524;-42
2022/01/28 05:28:46;;;;;;;12.90;3.70;;;2.80;99.90;;;;;;5020610;28;20157;-41
2022/01/28 05:31:12;;;;;;;15.53;3.10;;;2.80;99.90;;;;;;5035813;28;20239;-41
2022/01/28 05:33:38;;;;;;;13.43;3.17;;;2.70;99.90;;;;;;5035665;28;20595;-42
2022/01/28 05:36:05;;;;;;;11.13;3.20;;;2.70;99.90;;;;;;5035442;28;20375;-43
2022/01/28 05:38:31;;;;;;;12.77;3.27;;;2.60;99.90;;;;;;5036565;28;20247;-42
2022/01/28 05:40:57;;;;;;;15.07;3.47;;;2.70;99.90;;;;;;5035469;28;20633;-43
2022/01/28 05:43:24;;;;;;;14.93;2.60;;;2.60;99.90;;;;;;5035401;28;20180;-43
2022/01/28 05:45:50;;;;;;;14.47;2.97;;;2.60;99.90;;;;;;5035185;28;20219;-40
2022/01/28 05:48:19;;;;;;;21.10;3.60;;;2.60;99.90;;;;;;5035146;28;20191;-41
2022/01/28 05:50:45;;;;;;;17.03;3.23;;;2.60;99.90;;;;;;5035262;28;20181;-43
2022/01/28 05:53:26;;;;;;;14.77;3.83;;;2.60;99.90;;;;;;5035160;28;20548;-40
2022/01/28 05:55:55;;;;;;;11.00;3.13;;;2.60;99.90;;;;;;5035212;28;20208;-44
2022/01/28 06:08:42;;;;;;;15.20;4.23;;;2.50;99.90;;;;;;3393829;26;20307;-49
2022/01/28 06:11:08;;;;;;;10.57;3.90;;;2.50;99.90;;;;;;5073723;28;20179;-49
2022/01/28 06:13:34;;;;;;;17.77;4.20;;;2.50;99.90;;;;;;5074577;28;20207;-47
2022/01/28 06:15:59;;;;;;;12.87;4.17;;;2.60;99.90;;;;;;5074540;28;20209;-46
2022/01/28 06:18:25;;;;;;;28.67;5.43;;;2.50;99.90;;;;;;5058331;28;20541;-49
2022/01/28 06:20:51;;;;;;;11.20;4.97;;;2.60;99.90;;;;;;5056819;28;20274;-48
2022/01/28 06:23:16;;;;;;;14.80;5.17;;;2.60;99.90;;;;;;5074467;28;20182;-48
2022/01/28 06:25:43;;;;;;;18.13;5.17;;;2.60;99.90;;;;;;5074358;28;20211;-48
2022/01/28 06:28:09;;;;;;;15.63;4.80;;;2.50;99.90;;;;;;5074605;28;20193;-48
2022/01/28 06:30:35;;;;;;;14.53;3.90;;;2.60;99.90;;;;;;5074307;28;20183;-47
2022/01/28 06:33:00;;;;;;;10.73;3.77;;;2.60;99.90;;;;;;5074581;28;20190;-47
2022/01/28 06:35:26;;;;;;;13.93;4.10;;;2.60;99.90;;;;;;5056042;28;20273;-48
2022/01/28 06:37:52;;;;;;;17.00;4.23;;;2.60;99.90;;;;;;5074260;28;20195;-48
2022/01/28 06:40:17;;;;;;;22.03;4.73;;;2.60;99.90;;;;;;5074937;28;20183;-46
2022/01/28 06:42:44;;;;;;;14.23;4.10;;;2.60;99.90;;;;;;5056410;28;20194;-45
2022/01/28 06:45:10;;;;;;;16.67;4.37;;;2.60;99.90;;;;;;5074320;28;20214;-44
2022/01/28 06:47:36;;;;;;;16.00;4.97;;;2.60;99.90;;;;;;5074195;28;20202;-44
2022/01/28 06:50:05;;;;;;;11.23;4.23;;;2.60;99.90;;;;;;5074201;28;20181;-45
2022/01/28 06:52:34;;;;;;;17.57;4.70;;;2.50;99.90;;;;;;5055939;28;20186;-45
2022/01/28 06:55:03;;;;;;;12.60;4.00;;;2.50;99.90;;;;;;5076558;28;20198;-43
2022/01/28 06:57:30;;;;;;;16.23;4.60;;;2.50;99.90;;;;;;5058328;28;20681;-45
2022/01/28 06:59:57;;;;;;;17.90;5.17;;;2.50;99.90;;;;;;5074246;28;20193;-46
2022/01/28 07:02:22;;;;;;;14.80;4.63;;;2.40;99.90;;;;;;5076173;28;20182;-45
2022/01/28 07:04:48;;;;;;;9.90;4.90;;;2.40;99.90;;;;;;5056299;28;20805;-44
2022/01/28 07:07:14;;;;;;;15.43;4.70;;;2.40;99.90;;;;;;5056031;28;20677;-45
2022/01/28 07:09:40;;;;;;;14.63;5.30;;;2.40;99.90;;;;;;5038922;28;20269;-44
2022/01/28 07:12:06;;;;;;;17.37;5.53;;;2.40;99.90;;;;;;5055848;28;20186;-46
2022/01/28 07:14:32;;;;;;;21.37;6.57;;;2.40;99.90;;;;;;5074018;28;20191;-45
2022/01/28 07:16:57;;;;;;;19.90;5.13;;;2.40;99.90;;;;;;5055722;28;20689;-44
2022/01/28 07:19:23;;;;;;;16.80;5.10;;;2.40;99.90;;;;;;5055693;28;20189;-45
2022/01/28 07:21:49;;;;;;;17.27;5.50;;;2.30;99.90;;;;;;5073970;28;20179;-45
2022/01/28 07:24:14;;;;;;;12.00;5.47;;;2.30;99.90;;;;;;5055893;28;20654;-44
2022/01/28 07:26:40;;;;;;;17.80;7.00;;;2.20;99.90;;;;;;5056261;28;20211;-44
2022/01/28 07:29:09;;;;;;;24.50;7.03;;;2.20;99.90;;;;;;5073700;28;20188;-46
2022/01/28 07:31:36;;;;;;;18.93;6.50;;;2.20;99.90;;;;;;5058151;28;20209;-43
2022/01/28 07:34:06;;;;;;;25.37;7.90;;;2.20;99.90;;;;;;5060882;28;20243;-48
2022/01/28 07:36:34;;;;;;;17.80;7.20;;;2.20;99.90;;;;;;5063920;28;20209;-48
2022/01/28 07:39:00;;;;;;;15.00;7.63;;;2.30;99.90;;;;;;5058421;28;20193;-48
2022/01/28 07:41:27;;;;;;;23.43;7.40;;;2.30;99.90;;;;;;5077759;28;20619;-48
2022/01/28 07:43:53;;;;;;;18.83;8.07;;;2.30;99.90;;;;;;5060003;28;20202;-48
2022/01/28 07:46:19;;;;;;;26.60;7.60;;;2.30;99.90;;;;;;5079742;28;20215;-47
2022/01/28 07:48:45;;;;;;;16.30;8.43;;;2.30;99.90;;;;;;5081001;28;20182;-44
2022/01/28 07:51:12;;;;;;;17.20;8.37;;;2.30;99.90;;;;;;5081072;28;20178;-44
2022/01/28 07:53:38;;;;;;;20.20;7.40;;;2.30;99.90;;;;;;5063154;28;20206;-44
2022/01/28 07:56:04;;;;;;;21.40;8.17;;;2.30;99.90;;;;;;5077826;28;20202;-46
2022/01/28 07:58:30;;;;;;;21.03;8.43;;;2.30;99.90;;;;;;5059150;28;20188;-46
2022/01/28 08:00:56;;;;;;;20.77;8.27;;;2.30;99.90;;;;;;5055555;28;20224;-44
2022/01/28 08:03:21;;;;;;;24.70;9.47;;;2.30;99.90;;;;;;5055377;28;20649;-46
2022/01/28 08:05:47;;;;;;;15.13;8.00;;;2.30;99.90;;;;;;5055103;28;20342;-43
2022/01/28 08:08:13;;;;;;;22.90;7.70;;;2.30;99.90;;;;;;5055241;28;20208;-45
2022/01/28 08:10:39;;;;;;;18.67;8.57;;;2.30;99.90;;;;;;5072993;28;20170;-44
2022/01/28 08:13:05;;;;;;;16.27;7.63;;;2.30;99.90;;;;;;5055642;28;20203;-44
2022/01/28 08:15:32;;;;;;;18.13;8.00;;;2.30;99.90;;;;;;5054873;28;20188;-44
2022/01/28 08:17:57;;;;;;;21.50;8.10;;;2.40;99.90;;;;;;5055832;28;20579;-45
2022/01/28 08:20:23;;;;;;;15.80;7.83;;;2.40;99.90;;;;;;5073163;28;20473;-44
2022/01/28 08:22:51;;;;;;;20.43;7.97;;;2.40;99.90;;;;;;5076399;28;20182;-45
2022/01/28 08:25:18;;;;;;;17.33;6.70;;;2.50;99.90;;;;;;5058866;28;20228;-45
2022/01/28 08:27:45;;;;;;;20.40;8.10;;;2.50;99.90;;;;;;5058763;28;20623;-45
2022/01/28 08:30:13;;;;;;;17.97;8.47;;;2.60;99.90;;;;;;5076827;28;20178;-45
2022/01/28 08:32:39;;;;;;;19.47;8.47;;;2.60;99.90;;;;;;5077147;28;20179;-45
2022/01/28 08:35:05;;;;;;;25.00;8.63;;;2.70;99.90;;;;;;5076866;28;20175;-45
2022/01/28 08:37:31;;;;;;;13.67;7.50;;;2.70;99.90;;;;;;5058427;28;20213;-46
2022/01/28 08:39:57;;;;;;;25.97;8.17;;;2.80;99.90;;;;;;5058809;28;20269;-45
2022/01/28 08:42:22;;;;;;;28.30;10.80;;;2.80;99.90;;;;;;5076676;28;20297;-45
2022/01/28 08:44:48;;;;;;;27.70;8.80;;;2.90;99.90;;;;;;5076628;28;20202;-46
2022/01/28 08:47:14;;;;;;;25.07;10.40;;;2.90;99.90;;;;;;5076818;28;20202;-44
2022/01/28 08:49:39;;;;;;;26.17;9.60;;;2.90;99.90;;;;;;5077234;28;20191;-45
2022/01/28 08:52:05;;;;;;;25.20;9.43;;;3.00;99.90;;;;;;5076391;28;20179;-45
2022/01/28 08:54:31;;;;;;;25.60;10.53;;;3.00;99.90;;;;;;5058351;28;20316;-44
2022/01/28 08:56:57;;;;;;;23.60;10.13;;;3.10;99.90;;;;;;5041720;28;20292;-44
2022/01/28 08:59:22;;;;;;;25.50;9.77;;;3.10;99.90;;;;;;5076131;28;20181;-45
2022/01/28 09:01:48;;;;;;;32.43;11.13;;;3.10;99.90;;;;;;5076157;28;20183;-44
2022/01/28 09:04:13;;;;;;;30.63;11.13;;;3.30;99.90;;;;;;5076236;28;20630;-45
2022/01/28 09:06:39;;;;;;;26.20;11.00;;;3.30;99.90;;;;;;5057943;28;20268;-45
2022/01/28 09:09:05;;;;;;;31.00;11.67;;;3.30;99.90;;;;;;5076076;28;20681;-45
2022/01/28 09:11:34;;;;;;;26.23;11.20;;;3.40;99.90;;;;;;5057939;28;20212;-45
2022/01/28 09:14:00;;;;;;;22.57;10.50;;;3.40;99.90;;;;;;5057887;28;20214;-44
2022/01/28 09:16:26;;;;;;;35.00;12.43;;;3.50;99.90;;;;;;5058151;28;20477;-46
2022/01/28 09:18:51;;;;;;;33.60;14.57;;;3.60;99.90;;;;;;5076138;28;20214;-44
2022/01/28 09:21:18;;;;;;;21.63;10.10;;;3.60;99.90;;;;;;5076179;28;20565;-44
2022/01/28 09:23:46;;;;;;;34.47;12.67;;;3.70;99.90;;;;;;5075917;28;20181;-45
2022/01/28 09:26:13;;;;;;;24.80;12.60;;;3.80;99.90;;;;;;5058316;28;20577;-45
2022/01/28 09:28:39;;;;;;;25.90;11.43;;;3.80;99.90;;;;;;5075905;28;20210;-45
2022/01/28 09:31:04;;;;;;;17.77;8.30;;;3.90;99.90;;;;;;5057558;28;20633;-45
2022/01/28 09:33:30;;;;;;;30.03;12.50;;;3.90;99.90;;;;;;5057097;28;20225;-45
2022/01/28 09:35:55;;;;;;;30.83;10.93;;;4.00;99.90;;;;;;5057414;28;20241;-45
2022/01/28 09:38:21;;;;;;;28.87;11.67;;;4.10;99.90;;;;;;5075395;28;20520;-44
2022/01/28 09:40:48;;;;;;;33.87;12.10;;;4.10;99.90;;;;;;5075482;28;20184;-45
2022/01/28 09:43:14;;;;;;;24.03;12.03;;;4.20;99.90;;;;;;5075675;28;20234;-45
2022/01/28 09:45:40;;;;;;;28.53;11.90;;;4.30;99.90;;;;;;5057542;28;20218;-44
2022/01/28 09:48:05;;;;;;;26.87;11.63;;;4.30;99.90;;;;;;5075603;28;20661;-44
2022/01/28 09:50:33;;;;;;;34.93;12.57;;;4.40;99.90;;;;;;5075516;28;20184;-45
2022/01/28 09:52:59;;;;;;;28.43;12.77;;;4.50;99.90;;;;;;5075199;28;20176;-44
2022/01/28 09:55:26;;;;;;;25.13;12.73;;;4.60;99.90;;;;;;5075119;28;20189;-44
2022/01/28 09:57:57;;;;;;;28.70;13.27;;;4.60;99.90;;;;;;5057196;28;20184;-46
2022/01/28 10:00:25;;;;;;;24.30;13.77;;;4.70;99.90;;;;;;5056947;28;20175;-43
2022/01/28 10:03:03;;;;;;;24.57;13.50;;;4.80;99.90;;;;;;5056954;28;20305;-44
2022/01/28 10:05:34;;;;;;;23.07;12.37;;;4.90;99.90;;;;;;5056864;28;20261;-45
2022/01/28 10:08:11;;;;;;;26.07;12.20;;;4.90;99.90;;;;;;5056810;28;20207;-46
2022/01/28 10:10:41;;;;;;;26.97;13.60;;;5.00;99.90;;;;;;5057234;28;20646;-46
2022/01/28 10:16:21;;;;;;;22.33;12.10;;;5.20;99.90;;;;;;5074608;28;20270;-44
2022/01/28 10:18:48;;;;;;;28.57;12.00;;;5.30;99.90;;;;;;5074586;28;20666;-46
2022/01/28 10:21:22;;;;;;;27.50;11.60;;;5.30;99.90;;;;;;5056396;28;20183;-45
2022/01/28 10:24:10;;;;;;;25.07;11.60;;;5.40;99.90;;;;;;5056461;28;20184;-45
2022/01/28 10:27:05;;;;;;;26.47;12.67;;;5.50;99.90;;;;;;5074483;28;20265;-45
2022/01/28 10:29:41;;;;;;;22.30;11.90;;;5.60;99.90;;;;;;5056789;28;20176;-46
2022/01/28 10:32:13;;;;;;;21.23;10.97;;;5.60;99.90;;;;;;5074201;28;20184;-46
2022/01/28 10:34:49;;;;;;;22.40;10.67;;;5.70;99.90;;;;;;5075813;28;20196;-44
2022/01/28 10:37:20;;;;;;;28.43;10.43;;;5.70;99.90;;;;;;5056883;28;20281;-48
2022/01/28 10:39:57;;;;;;;18.90;9.30;;;5.80;99.90;;;;;;5074475;28;20180;-46
2022/01/28 10:42:28;;;;;;;21.47;9.10;;;5.90;99.90;;;;;;5074155;28;20184;-46
2022/01/28 10:45:00;;;;;;;14.57;9.07;;;5.90;99.90;;;;;;5073529;28;20200;-48
2022/01/28 10:47:34;;;;;;;21.87;8.63;;;6.00;99.90;;;;;;5056953;28;20282;-45
2022/01/28 10:50:13;;;;;;;18.17;8.03;;;6.10;99.90;;;;;;5074121;28;20168;-46
2022/01/28 10:52:39;;;;;;;20.67;7.80;;;6.10;99.90;;;;;;5056431;28;20492;-47
2022/01/28 10:55:05;;;;;;;17.70;7.83;;;6.20;99.90;;;;;;5074346;28;20189;-49
2022/01/28 10:57:31;;;;;;;22.87;6.60;;;6.30;99.90;;;;;;5056238;28;20569;-48
2022/01/28 10:59:57;;;;;;;13.53;6.10;;;6.40;99.90;;;;;;5074195;28;20206;-47
2022/01/28 11:02:26;;;;;;;20.70;7.60;;;6.40;99.90;;;;;;5073855;28;20180;-46
2022/01/28 11:04:55;;;;;;;15.03;5.87;;;6.50;99.90;;;;;;5073971;28;20200;-48
2022/01/28 11:07:21;;;;;;;10.23;4.67;;;6.60;99.90;;;;;;5055965;28;20196;-46
2022/01/28 11:09:48;;;;;;;17.70;4.93;;;6.70;99.90;;;;;;5073986;28;20223;-46
2022/01/28 11:12:14;;;;;;;18.73;4.80;;;6.70;99.90;;;;;;5055916;28;20273;-45
2022/01/28 11:14:41;;;;;;;21.33;5.87;;;6.80;99.90;;;;;;5073679;28;20224;-47
2022/01/28 11:17:10;;;;;;;20.73;6.20;;;6.80;99.90;;;;;;5073612;28;20290;-47
2022/01/28 11:19:38;;;;;;;13.33;5.50;;;6.90;99.90;;;;;;5074163;28;20209;-45
2022/01/28 11:22:33;;;;;;;12.97;6.10;;;7.00;99.90;;;;;;5055828;28;20653;-45
2022/01/28 11:25:36;;;;;;;17.00;6.17;;;7.00;99.90;;;;;;5073726;28;20531;-49
2022/01/28 11:28:07;;;;;;;18.00;6.80;;;7.00;99.90;;;;;;5073813;28;20148;-45
2022/01/28 11:30:33;;;;;;;13.53;6.57;;;7.00;99.90;;;;;;5055417;28;20674;-45
2022/01/28 11:33:06;;;;;;;16.90;6.47;;;7.00;99.90;;;;;;5073382;28;20176;-46
2022/01/28 11:35:40;;;;;;;17.37;6.90;;;7.10;99.90;;;;;;5055425;28;20199;-45
2022/01/28 11:38:36;;;;;;;15.67;6.17;;;7.10;99.90;;;;;;5073426;28;20642;-46
2022/01/28 11:41:14;;;;;;;17.83;5.90;;;7.20;99.90;;;;;;5054038;28;20617;-46
2022/01/28 11:43:45;;;;;;;14.23;5.27;;;7.30;99.90;;;;;;5055415;28;20230;-44
2022/01/28 11:46:21;;;;;;;10.80;3.77;;;7.40;99.90;;;;;;5055082;28;20214;-44
2022/01/28 11:48:55;;;;;;;11.20;4.13;;;7.40;99.90;;;;;;5073280;28;20698;-45
2022/01/28 11:51:23;;;;;;;15.80;5.00;;;7.30;99.90;;;;;;5073466;28;20171;-46
2022/01/28 11:53:57;;;;;;;15.23;5.20;;;7.30;99.90;;;;;;5073261;28;20179;-47
2022/01/28 11:56:24;;;;;;;14.20;5.37;;;7.30;99.90;;;;;;5076061;28;20200;-46
2022/01/28 11:59:01;;;;;;;17.10;5.00;;;7.20;99.90;;;;;;5077427;28;20183;-46
2022/01/28 12:01:38;;;;;;;12.10;3.83;;;7.20;99.90;;;;;;5077259;28;20538;-45
2022/01/28 12:04:26;;;;;;;15.53;4.43;;;7.10;99.90;;;;;;5077290;28;20254;-46
2022/01/28 12:06:59;;;;;;;13.53;4.33;;;7.10;99.90;;;;;;5059207;28;20607;-46
2022/01/28 12:09:30;;;;;;;16.53;5.13;;;7.00;99.90;;;;;;5076938;28;20672;-47
2022/01/28 12:11:58;;;;;;;14.03;4.73;;;7.00;99.90;;;;;;5077133;28;20669;-45
2022/01/28 12:14:54;;;;;;;13.80;4.73;;;7.00;99.90;;;;;;5059026;28;20658;-45
2022/01/28 12:17:33;;;;;;;7.93;3.17;;;6.90;99.90;;;;;;5058971;28;20228;-45
2022/01/28 12:20:23;;;;;;;11.10;3.97;;;7.10;99.90;;;;;;5077692;28;20254;-46
2022/01/28 12:23:18;;;;;;;19.53;4.60;;;7.10;99.90;;;;;;5077011;28;20158;-45
2022/01/28 12:25:43;;;;;;;16.50;4.70;;;7.30;99.90;;;;;;5036953;28;20306;-47
2022/01/28 12:28:18;;;;;;;14.43;5.17;;;7.30;99.90;;;;;;5077051;28;20317;-46
2022/01/28 12:30:49;;;;;;;13.23;4.67;;;7.40;99.90;;;;;;5058805;28;20182;-45
2022/01/28 12:33:20;;;;;;;15.20;5.17;;;7.60;99.90;;;;;;5076757;28;20153;-47
2022/01/28 12:35:49;;;;;;;16.13;5.63;;;7.70;99.90;;;;;;5076513;28;20197;-47
2022/01/28 12:38:15;;;;;;;17.67;6.80;;;8.00;99.90;;;;;;5076571;28;20535;-46
2022/01/28 12:40:48;;;;;;;9.73;5.40;;;8.10;99.90;;;;;;5076550;28;20257;-46
2022/01/28 12:43:19;;;;;;;13.73;6.17;;;8.10;99.90;;;;;;5076677;28;20161;-44
2022/01/28 12:45:57;;;;;;;14.90;7.83;;;8.10;99.90;;;;;;5058393;28;20217;-46
2022/01/28 12:48:23;;;;;;;18.03;7.37;;;8.10;99.90;;;;;;5058374;28;20181;-47
2022/01/28 12:50:50;;;;;;;22.70;7.30;;;8.10;99.90;;;;;;5076324;28;20177;-46
2022/01/28 12:53:39;;;;;;;18.77;8.93;;;8.00;99.90;;;;;;5076239;28;20197;-47
2022/01/28 12:56:05;;;;;;;18.67;8.27;;;8.10;99.90;;;;;;5058274;28;20202;-48
2022/01/28 12:58:40;;;;;;;28.90;8.40;;;8.10;99.90;;;;;;5058291;28;20183;-47
2022/01/28 13:01:14;;;;;;;20.37;9.47;;;8.20;99.90;;;;;;5076356;28;20166;-46
2022/01/28 13:04:01;;;;;;;17.83;6.63;;;8.30;99.90;;;;;;5058082;28;20197;-47
2022/01/28 13:06:42;;;;;;;17.20;8.47;;;8.40;99.90;;;;;;5075489;28;20206;-48
2022/01/28 13:09:15;;;;;;;19.83;10.20;;;8.40;99.90;;;;;;5075946;28;20190;-48
2022/01/28 13:11:58;;;;;;;19.03;8.87;;;8.40;99.90;;;;;;5058073;28;20170;-45
2022/01/28 13:14:26;;;;;;;20.27;9.20;;;8.40;99.90;;;;;;5059437;28;20533;-46
2022/01/28 13:16:53;;;;;;;22.40;8.17;;;8.30;99.90;;;;;;5057826;28;20199;-45
2022/01/28 13:19:20;;;;;;;11.90;5.30;;;8.20;99.90;;;;;;5057835;28;20180;-47
2022/01/28 13:21:47;;;;;;;16.40;6.50;;;8.10;99.90;;;;;;5075950;28;20175;-48
2022/01/28 13:24:15;;;;;;;25.13;9.73;;;8.10;99.90;;;;;;5075728;28;20179;-48
2022/01/28 13:27:04;;;;;;;17.73;6.80;;;8.20;99.90;;;;;;5057697;28;20210;-47
2022/01/28 13:29:49;;;;;;;15.33;6.63;;;8.30;99.90;;;;;;5057776;28;20266;-47
2022/01/28 13:32:17;;;;;;;19.70;8.37;;;8.40;99.90;;;;;;5075914;28;20578;-47
2022/01/28 13:34:58;;;;;;;21.37;8.57;;;8.40;99.90;;;;;;5075547;28;20201;-47
2022/01/28 13:37:39;;;;;;;16.87;7.63;;;8.60;99.90;;;;;;5075511;28;20229;-48
2022/01/28 13:40:28;;;;;;;19.37;8.47;;;8.60;99.90;;;;;;5075760;28;20182;-49
2022/01/28 13:43:09;;;;;;;24.30;9.00;;;8.60;99.90;;;;;;5075368;28;20676;-47
2022/01/28 13:46:05;;;;;;;20.40;9.87;;;8.60;99.90;;;;;;5075399;28;20545;-46
2022/01/28 13:48:34;;;;;;;22.03;11.63;;;8.60;99.90;;;;;;5060337;28;20201;-48
2022/01/28 13:51:05;;;;;;;22.20;11.47;;;8.50;99.90;;;;;;5075483;28;20214;-47
2022/01/28 13:56:46;;;;;;;25.07;13.47;;;8.40;99.90;;;;;;5075120;28;20239;-48
2022/01/28 13:59:15;;;;;;;24.80;10.53;;;8.40;99.90;;;;;;5075135;28;20166;-48
2022/01/28 14:01:46;;;;;;;19.60;8.73;;;8.40;99.90;;;;;;5074983;28;20229;-47
2022/01/28 14:04:20;;;;;;;18.37;9.27;;;8.50;99.90;;;;;;5074915;28;20176;-47
2022/01/28 14:06:46;;;;;;;16.10;9.33;;;8.50;99.90;;;;;;5075569;28;20214;-47
2022/01/28 14:09:15;;;;;;;21.43;10.17;;;8.60;99.90;;;;;;5057075;28;20201;-46
2022/01/28 14:11:45;;;;;;;19.00;9.63;;;8.60;99.90;;;;;;5075291;28;20548;-46
2022/01/28 14:14:30;;;;;;;21.33;9.30;;;8.50;99.90;;;;;;5057146;28;20189;-46
2022/01/28 14:17:07;;;;;;;21.87;10.70;;;8.50;99.90;;;;;;5075127;28;20199;-46
2022/01/28 14:19:36;;;;;;;18.67;10.67;;;8.50;99.90;;;;;;5075094;28;20156;-46
2022/01/28 14:22:02;;;;;;;19.97;9.87;;;8.50;99.90;;;;;;5057284;28;20548;-47
2022/01/28 14:24:31;;;;;;;25.13;13.27;;;8.50;99.90;;;;;;5056975;28;20175;-48
2022/01/28 14:27:12;;;;;;;25.27;14.43;;;8.50;99.90;;;;;;5056720;28;20203;-46
2022/01/28 14:32:11;;;;;;;31.03;14.40;;;8.60;99.90;;;;;;5074734;28;20189;-46
2022/01/28 14:34:38;;;;;;;32.10;15.70;;;8.60;99.90;;;;;;5057280;28;20175;-46
2022/01/28 14:37:05;;;;;;;31.13;16.80;;;8.60;99.90;;;;;;5040049;28;20207;-46
2022/01/28 14:39:32;;;;;;;29.53;16.37;;;8.50;99.90;;;;;;5056279;28;20172;-49
2022/01/28 14:42:03;;;;;;;33.73;17.87;;;8.40;99.90;;;;;;5074613;28;20185;-48